sensor_id;sensor_type;location;lat;lon;timestamp;pressure;altitude;pressure_sealevel;temperature;humidity
12949;BME280;6539;49.476;8.484;2023-04-15T00:00:46;99599.78;;;12.13;53.45
12949;BME280;6539;49.476;8.484;2023-04-15T00:03:13;99606.41;;;12.16;53.45
12949;BME280;6539;49.476;8.484;2023-04-15T00:05:40;99600.31;;;12.08;53.10
12949;BME280;6539;49.476;8.484;2023-04-15T00:08:06;99601.19;;;12.05;53.04
12949;BME280;6539;49.476;8.484;2023-04-15T00:10:32;99599.81;;;11.97;53.68
12949;BME280;6539;49.476;8.484;2023-04-15T00:12:58;99598.69;;;11.95;54.26
12949;BME280;6539;49.476;8.484;2023-04-15T00:15:24;99594.41;;;11.94;54.59
12949;BME280;6539;49.476;8.484;2023-04-15T00:17:50;99592.84;;;11.93;55.17
12949;BME280;6539;49.476;8.484;2023-04-15T00:20:16;99587.47;;;11.89;54.72
12949;BME280;6539;49.476;8.484;2023-04-15T00:22:42;99594.16;;;11.88;54.11
12949;BME280;6539;49.476;8.484;2023-04-15T00:25:10;99592.31;;;11.69;54.65
12949;BME280;6539;49.476;8.484;2023-04-15T00:27:39;99592.56;;;11.59;54.86
12949;BME280;6539;49.476;8.484;2023-04-15T00:30:07;99594.38;;;11.49;55.25
12949;BME280;6539;49.476;8.484;2023-04-15T00:32:33;99590.69;;;11.39;55.30
12949;BME280;6539;49.476;8.484;2023-04-15T00:34:59;99591.19;;;11.34;55.71
12949;BME280;6539;49.476;8.484;2023-04-15T00:37:25;99585.28;;;11.36;55.20
12949;BME280;6539;49.476;8.484;2023-04-15T00:39:50;99586.91;;;11.33;55.72
12949;BME280;6539;49.476;8.484;2023-04-15T00:42:17;99586.81;;;11.37;55.42
12949;BME280;6539;49.476;8.484;2023-04-15T00:44:48;99594.72;;;11.51;55.31
12949;BME280;6539;49.476;8.484;2023-04-15T00:47:16;99580.63;;;11.49;55.00
12949;BME280;6539;49.476;8.484;2023-04-15T00:49:42;99580.31;;;11.47;55.80
12949;BME280;6539;49.476;8.484;2023-04-15T00:52:13;99586.13;;;11.49;55.63
12949;BME280;6539;49.476;8.484;2023-04-15T00:54:39;99576.16;;;11.55;56.25
12949;BME280;6539;49.476;8.484;2023-04-15T00:57:06;99580.53;;;11.52;56.49
12949;BME280;6539;49.476;8.484;2023-04-15T00:59:33;99574.25;;;11.52;56.78
12949;BME280;6539;49.476;8.484;2023-04-15T01:01:59;99578.91;;;11.55;56.46
12949;BME280;6539;49.476;8.484;2023-04-15T01:04:29;99574.19;;;11.56;56.32
12949;BME280;6539;49.476;8.484;2023-04-15T01:06:55;99581.31;;;11.53;56.99
12949;BME280;6539;49.476;8.484;2023-04-15T01:09:21;99585.19;;;11.56;57.04
12949;BME280;6539;49.476;8.484;2023-04-15T01:11:47;99581.31;;;11.53;57.06
12949;BME280;6539;49.476;8.484;2023-04-15T01:14:13;99573.47;;;11.51;57.51
12949;BME280;6539;49.476;8.484;2023-04-15T01:16:38;99579.09;;;11.48;57.34
12949;BME280;6539;49.476;8.484;2023-04-15T01:19:09;99577.56;;;11.47;57.35
12949;BME280;6539;49.476;8.484;2023-04-15T01:21:39;99578.31;;;11.47;57.72
12949;BME280;6539;49.476;8.484;2023-04-15T01:24:09;99569.66;;;11.49;57.63
12949;BME280;6539;49.476;8.484;2023-04-15T01:26:44;99575.16;;;11.49;57.90
12949;BME280;6539;49.476;8.484;2023-04-15T01:29:11;99581.72;;;11.51;57.72
12949;BME280;6539;49.476;8.484;2023-04-15T01:31:40;99578.56;;;11.53;57.13
12949;BME280;6539;49.476;8.484;2023-04-15T01:34:08;99577.28;;;11.41;57.52
12949;BME280;6539;49.476;8.484;2023-04-15T01:36:37;99582.09;;;11.37;57.43
12949;BME280;6539;49.476;8.484;2023-04-15T01:39:03;99580.47;;;11.24;58.09
12949;BME280;6539;49.476;8.484;2023-04-15T01:41:30;99582.69;;;11.13;58.04
12949;BME280;6539;49.476;8.484;2023-04-15T01:43:58;99591.81;;;11.10;58.59
12949;BME280;6539;49.476;8.484;2023-04-15T01:46:26;99589.50;;;11.08;58.74
12949;BME280;6539;49.476;8.484;2023-04-15T01:48:52;99587.34;;;11.00;58.40
12949;BME280;6539;49.476;8.484;2023-04-15T01:51:17;99590.19;;;10.60;59.82
12949;BME280;6539;49.476;8.484;2023-04-15T01:53:43;99588.50;;;10.47;60.52
12949;BME280;6539;49.476;8.484;2023-04-15T01:56:09;99592.06;;;10.44;60.84
12949;BME280;6539;49.476;8.484;2023-04-15T01:58:39;99589.41;;;10.40;60.45
12949;BME280;6539;49.476;8.484;2023-04-15T02:01:05;99588.38;;;10.34;60.85
12949;BME280;6539;49.476;8.484;2023-04-15T02:03:31;99583.66;;;10.35;61.05
12949;BME280;6539;49.476;8.484;2023-04-15T02:05:57;99587.16;;;10.35;61.36
12949;BME280;6539;49.476;8.484;2023-04-15T02:08:23;99592.66;;;10.35;61.92
12949;BME280;6539;49.476;8.484;2023-04-15T02:10:53;99594.91;;;10.40;61.75
12949;BME280;6539;49.476;8.484;2023-04-15T02:13:21;99588.50;;;10.47;60.85
12949;BME280;6539;49.476;8.484;2023-04-15T02:15:50;99588.50;;;10.47;60.85
12949;BME280;6539;49.476;8.484;2023-04-15T02:18:20;99594.63;;;10.54;60.92
12949;BME280;6539;49.476;8.484;2023-04-15T02:20:46;99590.19;;;10.60;60.92
12949;BME280;6539;49.476;8.484;2023-04-15T02:23:16;99588.13;;;10.64;60.33
12949;BME280;6539;49.476;8.484;2023-04-15T02:25:41;99588.19;;;10.61;60.38
12949;BME280;6539;49.476;8.484;2023-04-15T02:28:07;99587.44;;;10.60;59.87
12949;BME280;6539;49.476;8.484;2023-04-15T02:30:33;99592.06;;;10.63;60.79
12949;BME280;6539;49.476;8.484;2023-04-15T02:33:02;99589.31;;;10.63;60.89
12949;BME280;6539;49.476;8.484;2023-04-15T02:35:31;99588.97;;;10.61;60.61
12949;BME280;6539;49.476;8.484;2023-04-15T02:37:57;99594.31;;;10.68;61.00
12949;BME280;6539;49.476;8.484;2023-04-15T02:40:27;99588.38;;;10.70;60.69
12949;BME280;6539;49.476;8.484;2023-04-15T02:42:55;99590.78;;;10.68;60.36
12949;BME280;6539;49.476;8.484;2023-04-15T02:45:21;99588.91;;;10.65;60.18
12949;BME280;6539;49.476;8.484;2023-04-15T02:47:52;99593.28;;;10.62;59.81
12949;BME280;6539;49.476;8.484;2023-04-15T02:50:17;99591.72;;;10.61;60.07
12949;BME280;6539;49.476;8.484;2023-04-15T02:52:46;99591.31;;;10.63;59.60
12949;BME280;6539;49.476;8.484;2023-04-15T02:55:13;99589.81;;;10.58;59.53
12949;BME280;6539;49.476;8.484;2023-04-15T02:57:39;99590.56;;;10.59;59.51
12949;BME280;6539;49.476;8.484;2023-04-15T03:00:06;99586.75;;;10.56;59.96
12949;BME280;6539;49.476;8.484;2023-04-15T03:02:36;99595.31;;;10.58;59.92
12949;BME280;6539;49.476;8.484;2023-04-15T03:05:02;99591.88;;;10.54;59.80
12949;BME280;6539;49.476;8.484;2023-04-15T03:07:31;99588.97;;;10.61;59.89
12949;BME280;6539;49.476;8.484;2023-04-15T03:09:59;99593.63;;;10.64;60.05
12949;BME280;6539;49.476;8.484;2023-04-15T03:12:27;99589.66;;;10.65;59.67
12949;BME280;6539;49.476;8.484;2023-04-15T03:14:53;99599.88;;;10.65;59.39
12949;BME280;6539;49.476;8.484;2023-04-15T03:17:24;99599.09;;;10.64;59.80
12949;BME280;6539;49.476;8.484;2023-04-15T03:19:49;99593.97;;;10.66;59.91
12949;BME280;6539;49.476;8.484;2023-04-15T03:22:15;99605.78;;;10.63;60.07
12949;BME280;6539;49.476;8.484;2023-04-15T03:24:41;99599.94;;;10.61;59.65
12949;BME280;6539;49.476;8.484;2023-04-15T03:27:07;99601.28;;;10.53;59.21
12949;BME280;6539;49.476;8.484;2023-04-15T03:29:33;99602.56;;;10.49;59.93
12949;BME280;6539;49.476;8.484;2023-04-15T03:31:59;99593.97;;;10.47;59.89
12949;BME280;6539;49.476;8.484;2023-04-15T03:34:26;99599.56;;;10.43;59.94
12949;BME280;6539;49.476;8.484;2023-04-15T03:36:52;99600.31;;;10.44;60.02
12949;BME280;6539;49.476;8.484;2023-04-15T03:39:18;99598.44;;;10.41;59.71
12949;BME280;6539;49.476;8.484;2023-04-15T03:41:43;99601.16;;;10.41;60.04
12949;BME280;6539;49.476;8.484;2023-04-15T03:44:09;99592.59;;;10.39;59.96
12949;BME280;6539;49.476;8.484;2023-04-15T03:46:35;99596.50;;;10.38;59.73
12949;BME280;6539;49.476;8.484;2023-04-15T03:49:01;99591.94;;;10.31;59.47
12949;BME280;6539;49.476;8.484;2023-04-15T03:51:27;99599.13;;;10.25;59.29
12949;BME280;6539;49.476;8.484;2023-04-15T03:53:57;99601.53;;;10.23;59.53
12949;BME280;6539;49.476;8.484;2023-04-15T03:56:24;99590.91;;;10.25;59.70
12949;BME280;6539;49.476;8.484;2023-04-15T03:58:49;99596.81;;;10.24;59.39
12949;BME280;6539;49.476;8.484;2023-04-15T04:01:15;99597.59;;;10.24;59.30
12949;BME280;6539;49.476;8.484;2023-04-15T04:03:43;99596.47;;;10.22;59.27
12949;BME280;6539;49.476;8.484;2023-04-15T04:06:12;99605.88;;;10.21;59.18
12949;BME280;6539;49.476;8.484;2023-04-15T04:08:37;99600.03;;;10.19;59.22
12949;BME280;6539;49.476;8.484;2023-04-15T04:11:06;99598.44;;;10.21;58.99
12949;BME280;6539;49.476;8.484;2023-04-15T04:13:31;99601.72;;;10.13;58.49
12949;BME280;6539;49.476;8.484;2023-04-15T04:15:57;99600.31;;;10.05;58.55
12949;BME280;6539;49.476;8.484;2023-04-15T04:18:23;99607.28;;;10.09;59.04
12949;BME280;6539;49.476;8.484;2023-04-15T04:20:48;99607.28;;;10.09;58.89
12949;BME280;6539;49.476;8.484;2023-04-15T04:23:17;99606.13;;;10.07;58.72
12949;BME280;6539;49.476;8.484;2023-04-15T04:25:43;99608.09;;;10.06;58.92
12949;BME280;6539;49.476;8.484;2023-04-15T04:28:11;99611.97;;;10.09;58.89
12949;BME280;6539;49.476;8.484;2023-04-15T04:30:37;99611.91;;;10.12;58.73
12949;BME280;6539;49.476;8.484;2023-04-15T04:33:02;99610.75;;;10.10;58.79
12949;BME280;6539;49.476;8.484;2023-04-15T04:35:28;99616.56;;;10.15;58.47
12949;BME280;6539;49.476;8.484;2023-04-15T04:37:54;99607.84;;;10.20;58.16
12949;BME280;6539;49.476;8.484;2023-04-15T04:40:21;99600.38;;;10.21;58.14
12949;BME280;6539;49.476;8.484;2023-04-15T04:42:46;99611.72;;;10.23;57.93
12949;BME280;6539;49.476;8.484;2023-04-15T04:45:12;99605.81;;;10.24;58.18
12949;BME280;6539;49.476;8.484;2023-04-15T04:47:40;99616.38;;;10.26;57.59
12949;BME280;6539;49.476;8.484;2023-04-15T04:50:07;99611.66;;;10.26;57.53
12949;BME280;6539;49.476;8.484;2023-04-15T04:52:33;99617.91;;;10.27;58.11
12949;BME280;6539;49.476;8.484;2023-04-15T04:54:59;99616.72;;;10.28;57.39
12949;BME280;6539;49.476;8.484;2023-04-15T04:57:27;99614.41;;;10.26;57.48
12949;BME280;6539;49.476;8.484;2023-04-15T04:59:53;99610.94;;;10.22;57.31
12949;BME280;6539;49.476;8.484;2023-04-15T05:02:18;99618.81;;;10.20;57.63
12949;BME280;6539;49.476;8.484;2023-04-15T05:04:49;99625.84;;;10.21;57.59
12949;BME280;6539;49.476;8.484;2023-04-15T05:07:19;99629.66;;;10.27;57.76
12949;BME280;6539;49.476;8.484;2023-04-15T05:09:45;99632.63;;;10.36;57.89
12949;BME280;6539;49.476;8.484;2023-04-15T05:12:13;99625.44;;;10.42;57.14
12949;BME280;6539;49.476;8.484;2023-04-15T05:14:42;99635.22;;;10.43;56.99
12949;BME280;6539;49.476;8.484;2023-04-15T05:17:08;99640.19;;;10.48;56.95
12949;BME280;6539;49.476;8.484;2023-04-15T05:19:35;99631.47;;;10.53;57.05
12949;BME280;6539;49.476;8.484;2023-04-15T05:22:01;99631.00;;;10.58;57.41
12949;BME280;6539;49.476;8.484;2023-04-15T05:24:27;99633.31;;;10.60;57.06
12949;BME280;6539;49.476;8.484;2023-04-15T05:26:55;99651.31;;;10.61;57.34
12949;BME280;6539;49.476;8.484;2023-04-15T05:29:23;99651.69;;;10.63;57.80
12949;BME280;6539;49.476;8.484;2023-04-15T05:31:49;99657.00;;;10.70;57.63
12949;BME280;6539;49.476;8.484;2023-04-15T05:34:15;99651.25;;;10.64;57.67
12949;BME280;6539;49.476;8.484;2023-04-15T05:36:43;99653.84;;;10.71;57.80
12949;BME280;6539;49.476;8.484;2023-04-15T05:39:12;99649.13;;;10.72;57.69
12949;BME280;6539;49.476;8.484;2023-04-15T05:41:38;99652.50;;;10.80;57.35
12949;BME280;6539;49.476;8.484;2023-04-15T05:44:04;99649.09;;;10.92;57.73
12949;BME280;6539;49.476;8.484;2023-04-15T05:46:32;99649.13;;;11.08;57.21
12949;BME280;6539;49.476;8.484;2023-04-15T05:48:57;99646.41;;;11.24;56.35
12949;BME280;6539;49.476;8.484;2023-04-15T05:51:25;99649.69;;;11.35;55.82
12949;BME280;6539;49.476;8.484;2023-04-15T05:53:53;99648.06;;;11.54;55.17
12949;BME280;6539;49.476;8.484;2023-04-15T05:56:22;99642.41;;;11.77;54.51
12949;BME280;6539;49.476;8.484;2023-04-15T05:58:48;99658.97;;;12.05;53.87
12949;BME280;6539;49.476;8.484;2023-04-15T06:01:19;99651.66;;;12.27;52.80
12949;BME280;6539;49.476;8.484;2023-04-15T06:03:47;99652.75;;;12.59;51.91
12949;BME280;6539;49.476;8.484;2023-04-15T06:06:15;99654.47;;;12.94;50.70
12949;BME280;6539;49.476;8.484;2023-04-15T06:08:44;99659.03;;;13.38;49.51
12949;BME280;6539;49.476;8.484;2023-04-15T06:11:09;99649.75;;;13.57;48.60
12949;BME280;6539;49.476;8.484;2023-04-15T06:13:38;99643.72;;;13.97;48.00
12949;BME280;6539;49.476;8.484;2023-04-15T06:16:07;99651.13;;;14.21;47.21
12949;BME280;6539;49.476;8.484;2023-04-15T06:18:33;99650.25;;;14.24;47.04
12949;BME280;6539;49.476;8.484;2023-04-15T06:21:01;99649.88;;;14.57;46.44
12949;BME280;6539;49.476;8.484;2023-04-15T06:23:30;99656.25;;;14.97;45.27
12949;BME280;6539;49.476;8.484;2023-04-15T06:25:56;99655.16;;;15.25;44.91
12949;BME280;6539;49.476;8.484;2023-04-15T06:28:21;99659.78;;;15.68;43.59
12949;BME280;6539;49.476;8.484;2023-04-15T06:30:48;99655.41;;;15.97;42.70
12949;BME280;6539;49.476;8.484;2023-04-15T06:33:14;99658.31;;;16.48;41.17
12949;BME280;6539;49.476;8.484;2023-04-15T06:35:40;99657.69;;;16.71;40.92
12949;BME280;6539;49.476;8.484;2023-04-15T06:38:08;99656.28;;;16.94;40.34
12949;BME280;6539;49.476;8.484;2023-04-15T06:40:39;99659.47;;;17.02;39.81
12949;BME280;6539;49.476;8.484;2023-04-15T06:43:05;99654.69;;;17.11;39.69
12949;BME280;6539;49.476;8.484;2023-04-15T06:45:33;99656.41;;;17.00;39.40
12949;BME280;6539;49.476;8.484;2023-04-15T06:48:04;99655.28;;;17.15;39.51
12949;BME280;6539;49.476;8.484;2023-04-15T06:50:32;99651.69;;;17.24;39.09
12949;BME280;6539;49.476;8.484;2023-04-15T06:53:00;99652.66;;;17.53;38.83
12949;BME280;6539;49.476;8.484;2023-04-15T06:55:26;99651.50;;;17.69;38.02
12949;BME280;6539;49.476;8.484;2023-04-15T06:57:52;99654.22;;;17.78;38.02
12949;BME280;6539;49.476;8.484;2023-04-15T07:00:20;99654.22;;;18.02;37.55
12949;BME280;6539;49.476;8.484;2023-04-15T07:02:49;99662.59;;;18.16;37.40
12949;BME280;6539;49.476;8.484;2023-04-15T07:05:22;99662.34;;;18.29;37.75
12949;BME280;6539;49.476;8.484;2023-04-15T07:07:47;99661.38;;;18.56;37.05
12949;BME280;6539;49.476;8.484;2023-04-15T07:10:13;99659.50;;;18.91;36.74
12949;BME280;6539;49.476;8.484;2023-04-15T07:12:40;99661.06;;;19.27;35.80
12949;BME280;6539;49.476;8.484;2023-04-15T07:15:09;99663.53;;;19.54;35.63
12949;BME280;6539;49.476;8.484;2023-04-15T07:17:35;99657.75;;;19.08;36.42
12949;BME280;6539;49.476;8.484;2023-04-15T07:20:02;99652.94;;;18.65;37.30
12949;BME280;6539;49.476;8.484;2023-04-15T07:22:30;99651.72;;;18.27;38.14
12949;BME280;6539;49.476;8.484;2023-04-15T07:24:58;99653.09;;;18.08;38.62
12949;BME280;6539;49.476;8.484;2023-04-15T07:27:24;99652.81;;;17.83;38.94
12949;BME280;6539;49.476;8.484;2023-04-15T07:29:50;99659.78;;;17.45;39.60
12949;BME280;6539;49.476;8.484;2023-04-15T07:32:19;99663.41;;;17.19;39.99
12949;BME280;6539;49.476;8.484;2023-04-15T07:34:49;99667.91;;;17.16;40.69
12949;BME280;6539;49.476;8.484;2023-04-15T07:37:17;99662.72;;;17.00;41.04
12949;BME280;6539;49.476;8.484;2023-04-15T07:39:43;99663.84;;;16.85;41.16
12949;BME280;6539;49.476;8.484;2023-04-15T07:42:09;99660.34;;;16.66;41.90
12949;BME280;6539;49.476;8.484;2023-04-15T07:44:35;99663.09;;;16.75;41.58
12949;BME280;6539;49.476;8.484;2023-04-15T07:47:02;99668.75;;;16.99;41.22
12949;BME280;6539;49.476;8.484;2023-04-15T07:49:28;99665.47;;;17.09;40.27
12949;BME280;6539;49.476;8.484;2023-04-15T07:51:54;99671.94;;;17.06;40.33
12949;BME280;6539;49.476;8.484;2023-04-15T07:54:22;99673.53;;;16.89;40.64
12949;BME280;6539;49.476;8.484;2023-04-15T07:56:47;99677.72;;;16.75;40.69
12949;BME280;6539;49.476;8.484;2023-04-15T07:59:14;99673.13;;;16.63;41.05
12949;BME280;6539;49.476;8.484;2023-04-15T08:01:44;99676.84;;;16.60;41.23
12949;BME280;6539;49.476;8.484;2023-04-15T08:04:15;99682.34;;;16.42;41.42
12949;BME280;6539;49.476;8.484;2023-04-15T08:06:41;99679.25;;;16.31;41.71
12949;BME280;6539;49.476;8.484;2023-04-15T08:09:07;99674.66;;;16.19;42.07
12949;BME280;6539;49.476;8.484;2023-04-15T08:11:35;99675.88;;;16.18;41.63
12949;BME280;6539;49.476;8.484;2023-04-15T08:14:02;99678.34;;;16.25;41.88
12949;BME280;6539;49.476;8.484;2023-04-15T08:16:27;99671.53;;;16.90;40.10
12949;BME280;6539;49.476;8.484;2023-04-15T08:18:55;99673.53;;;17.73;38.53
12949;BME280;6539;49.476;8.484;2023-04-15T08:21:21;99676.50;;;18.55;37.21
12949;BME280;6539;49.476;8.484;2023-04-15T08:23:50;99681.91;;;19.02;36.60
12949;BME280;6539;49.476;8.484;2023-04-15T08:26:17;99684.34;;;19.58;35.41
12949;BME280;6539;49.476;8.484;2023-04-15T08:28:45;99682.41;;;19.99;34.97
12949;BME280;6539;49.476;8.484;2023-04-15T08:31:13;99682.91;;;20.38;34.55
12949;BME280;6539;49.476;8.484;2023-04-15T08:33:39;99686.31;;;20.47;33.79
12949;BME280;6539;49.476;8.484;2023-04-15T08:36:05;99680.13;;;20.38;33.90
12949;BME280;6539;49.476;8.484;2023-04-15T08:38:32;99684.88;;;20.32;33.93
12949;BME280;6539;49.476;8.484;2023-04-15T08:41:03;99691.84;;;20.22;33.99
12949;BME280;6539;49.476;8.484;2023-04-15T08:43:34;99692.66;;;19.88;34.59
12949;BME280;6539;49.476;8.484;2023-04-15T08:46:04;99695.31;;;19.97;34.36
12949;BME280;6539;49.476;8.484;2023-04-15T08:48:37;99691.53;;;19.65;34.53
12949;BME280;6539;49.476;8.484;2023-04-15T08:51:05;99692.31;;;19.65;34.82
12949;BME280;6539;49.476;8.484;2023-04-15T08:53:32;99688.81;;;19.50;35.41
12949;BME280;6539;49.476;8.484;2023-04-15T08:56:03;99694.88;;;19.84;35.22
12949;BME280;6539;49.476;8.484;2023-04-15T08:58:32;99691.84;;;20.22;34.64
12949;BME280;6539;49.476;8.484;2023-04-15T09:01:01;99698.13;;;20.37;33.56
12949;BME280;6539;49.476;8.484;2023-04-15T09:03:33;99705.75;;;20.02;33.93
12949;BME280;6539;49.476;8.484;2023-04-15T09:05:59;99697.72;;;19.54;34.72
12949;BME280;6539;49.476;8.484;2023-04-15T09:08:27;99696.00;;;19.57;35.02
12949;BME280;6539;49.476;8.484;2023-04-15T09:10:57;99702.72;;;19.85;34.64
12949;BME280;6539;49.476;8.484;2023-04-15T09:13:23;99706.44;;;20.17;34.24
12949;BME280;6539;49.476;8.484;2023-04-15T09:15:52;99703.53;;;20.46;33.95
12949;BME280;6539;49.476;8.484;2023-04-15T09:18:30;99706.38;;;20.72;32.89
12949;BME280;6539;49.476;8.484;2023-04-15T09:21:10;99698.13;;;20.83;32.84
12949;BME280;6539;49.476;8.484;2023-04-15T09:23:39;99704.16;;;20.81;32.88
12949;BME280;6539;49.476;8.484;2023-04-15T09:26:06;99699.69;;;20.89;32.79
12949;BME280;6539;49.476;8.484;2023-04-15T09:28:41;99702.94;;;21.08;32.03
12949;BME280;6539;49.476;8.484;2023-04-15T09:31:07;99698.34;;;21.05;32.44
12949;BME280;6539;49.476;8.484;2023-04-15T09:33:34;99707.81;;;21.13;32.08
12949;BME280;6539;49.476;8.484;2023-04-15T09:36:04;99707.56;;;20.91;32.20
12949;BME280;6539;49.476;8.484;2023-04-15T09:38:33;99707.69;;;21.02;32.49
12949;BME280;6539;49.476;8.484;2023-04-15T09:41:15;99702.13;;;21.33;31.94
12949;BME280;6539;49.476;8.484;2023-04-15T09:43:43;99714.69;;;21.49;32.61
12949;BME280;6539;49.476;8.484;2023-04-15T09:46:08;99717.13;;;21.36;31.45
12949;BME280;6539;49.476;8.484;2023-04-15T09:48:35;99715.03;;;21.25;31.62
12949;BME280;6539;49.476;8.484;2023-04-15T09:51:01;99717.53;;;20.97;31.70
12949;BME280;6539;49.476;8.484;2023-04-15T09:53:28;99713.69;;;20.69;32.76
12949;BME280;6539;49.476;8.484;2023-04-15T09:56:00;99711.59;;;20.64;32.92
12949;BME280;6539;49.476;8.484;2023-04-15T09:58:32;99718.50;;;20.69;32.99
12949;BME280;6539;49.476;8.484;2023-04-15T10:01:02;99717.31;;;20.75;32.93
12949;BME280;6539;49.476;8.484;2023-04-15T10:03:35;99721.69;;;20.82;33.04
12949;BME280;6539;49.476;8.484;2023-04-15T10:06:03;99722.88;;;20.75;33.22
12949;BME280;6539;49.476;8.484;2023-04-15T10:08:34;99713.25;;;20.76;33.00
12949;BME280;6539;49.476;8.484;2023-04-15T10:11:06;99717.94;;;20.65;33.53
12949;BME280;6539;49.476;8.484;2023-04-15T10:13:35;99720.56;;;20.48;34.10
12949;BME280;6539;49.476;8.484;2023-04-15T10:16:11;99726.63;;;20.46;34.21
12949;BME280;6539;49.476;8.484;2023-04-15T10:18:47;99732.34;;;20.37;33.80
12949;BME280;6539;49.476;8.484;2023-04-15T10:21:14;99726.28;;;20.39;33.50
12949;BME280;6539;49.476;8.484;2023-04-15T10:23:49;99741.72;;;20.20;33.74
12949;BME280;6539;49.476;8.484;2023-04-15T10:26:16;99734.94;;;20.06;33.73
12949;BME280;6539;49.476;8.484;2023-04-15T10:28:45;99741.50;;;20.03;33.87
12949;BME280;6539;49.476;8.484;2023-04-15T10:31:17;99736.94;;;19.86;34.42
12949;BME280;6539;49.476;8.484;2023-04-15T10:33:49;99738.50;;;19.72;35.36
12949;BME280;6539;49.476;8.484;2023-04-15T10:36:19;99744.84;;;19.72;35.40
12949;BME280;6539;49.476;8.484;2023-04-15T10:38:47;99740.31;;;19.75;35.23
12949;BME280;6539;49.476;8.484;2023-04-15T10:41:18;99746.34;;;19.88;34.54
12949;BME280;6539;49.476;8.484;2023-04-15T10:46:23;99756.72;;;20.22;34.06
12949;BME280;6539;49.476;8.484;2023-04-15T10:48:53;99755.84;;;20.31;33.90
12949;BME280;6539;49.476;8.484;2023-04-15T10:51:32;99758.34;;;20.29;33.13
12949;BME280;6539;49.476;8.484;2023-04-15T10:54:01;99758.34;;;20.29;33.23
12949;BME280;6539;49.476;8.484;2023-04-15T10:56:32;99763.69;;;20.32;33.17
12949;BME280;6539;49.476;8.484;2023-04-15T10:59:00;99761.47;;;20.36;32.33
12949;BME280;6539;49.476;8.484;2023-04-15T11:02:01;99763.63;;;20.27;31.94
12949;BME280;6539;49.476;8.484;2023-04-15T11:04:56;99770.28;;;20.15;32.18
12949;BME280;6539;49.476;8.484;2023-04-15T11:07:54;99771.53;;;20.14;31.60
12949;BME280;6539;49.476;8.484;2023-04-15T11:15:31;99769.06;;;19.66;30.20
12949;BME280;6539;49.476;8.484;2023-04-15T11:18:19;99778.00;;;19.41;30.24
12949;BME280;6539;49.476;8.484;2023-04-15T11:23:28;99787.50;;;19.35;30.56
12949;BME280;6539;49.476;8.484;2023-04-15T11:25:55;99787.66;;;19.31;30.71
12949;BME280;6539;49.476;8.484;2023-04-15T11:28:28;99786.41;;;19.32;31.26
12949;BME280;6539;49.476;8.484;2023-04-15T11:30:56;99787.19;;;19.33;31.24
12949;BME280;6539;49.476;8.484;2023-04-15T11:33:23;99792.59;;;19.36;31.80
12949;BME280;6539;49.476;8.484;2023-04-15T11:35:51;99788.31;;;19.26;30.59
12949;BME280;6539;49.476;8.484;2023-04-15T11:38:18;99791.59;;;19.10;30.82
12949;BME280;6539;49.476;8.484;2023-04-15T11:40:47;99787.03;;;18.98;31.51
12949;BME280;6539;49.476;8.484;2023-04-15T11:43:23;99797.09;;;18.81;31.30
12949;BME280;6539;49.476;8.484;2023-04-15T11:45:59;99795.53;;;18.65;31.48
12949;BME280;6539;49.476;8.484;2023-04-15T11:48:30;99805.94;;;18.56;31.99
12949;BME280;6539;49.476;8.484;2023-04-15T11:51:06;99805.50;;;18.48;32.71
12949;BME280;6539;49.476;8.484;2023-04-15T11:53:42;99803.81;;;18.51;32.33
12949;BME280;6539;49.476;8.484;2023-04-15T11:56:16;99800.75;;;18.40;33.02
12949;BME280;6539;49.476;8.484;2023-04-15T11:58:42;99811.25;;;18.45;33.24
12949;BME280;6539;49.476;8.484;2023-04-15T12:01:09;99804.16;;;18.44;33.66
12949;BME280;6539;49.476;8.484;2023-04-15T12:03:39;99811.41;;;18.41;34.03
12949;BME280;6539;49.476;8.484;2023-04-15T12:06:23;99815.72;;;18.42;33.62
12949;BME280;6539;49.476;8.484;2023-04-15T12:09:11;99814.50;;;18.43;34.32
12949;BME280;6539;49.476;8.484;2023-04-15T12:11:48;99816.25;;;18.32;33.58
12949;BME280;6539;49.476;8.484;2023-04-15T12:17:07;99825.19;;;18.36;33.35
12949;BME280;6539;49.476;8.484;2023-04-15T12:19:42;99815.19;;;18.29;33.64
12949;BME280;6539;49.476;8.484;2023-04-15T12:22:15;99814.72;;;18.31;33.97
12949;BME280;6539;49.476;8.484;2023-04-15T12:24:43;99824.28;;;18.29;34.03
12949;BME280;6539;49.476;8.484;2023-04-15T12:27:16;99830.63;;;18.30;33.50
12949;BME280;6539;49.476;8.484;2023-04-15T12:29:42;99837.59;;;18.25;32.84
12949;BME280;6539;49.476;8.484;2023-04-15T12:32:16;99836.09;;;18.15;32.70
12949;BME280;6539;49.476;8.484;2023-04-15T12:34:52;99830.59;;;18.06;32.71
12949;BME280;6539;49.476;8.484;2023-04-15T12:37:19;99841.41;;;18.04;33.35
12949;BME280;6539;49.476;8.484;2023-04-15T12:39:47;99839.88;;;17.94;33.43
12949;BME280;6539;49.476;8.484;2023-04-15T12:42:17;99834.22;;;17.80;33.79
12949;BME280;6539;49.476;8.484;2023-04-15T12:44:43;99830.56;;;17.74;33.71
12949;BME280;6539;49.476;8.484;2023-04-15T12:47:11;99844.91;;;17.72;32.72
12949;BME280;6539;49.476;8.484;2023-04-15T12:49:40;99844.91;;;17.72;31.41
12949;BME280;6539;49.476;8.484;2023-04-15T12:52:08;99848.44;;;17.73;30.66
12949;BME280;6539;49.476;8.484;2023-04-15T12:54:41;99839.81;;;17.71;29.90
12949;BME280;6539;49.476;8.484;2023-04-15T12:57:10;99840.75;;;17.68;29.59
12949;BME280;6539;49.476;8.484;2023-04-15T12:59:38;99843.03;;;17.78;29.37
12949;BME280;6539;49.476;8.484;2023-04-15T13:02:03;99854.75;;;17.82;29.46
12949;BME280;6539;49.476;8.484;2023-04-15T13:04:35;99842.13;;;17.81;30.02
12949;BME280;6539;49.476;8.484;2023-04-15T13:07:01;99851.66;;;17.80;28.90
12949;BME280;6539;49.476;8.484;2023-04-15T13:09:27;99858.31;;;17.83;29.31
12949;BME280;6539;49.476;8.484;2023-04-15T13:11:55;99856.41;;;17.89;28.85
12949;BME280;6539;49.476;8.484;2023-04-15T13:14:21;99853.66;;;17.89;28.61
12949;BME280;6539;49.476;8.484;2023-04-15T13:16:47;99858.44;;;17.88;28.77
12949;BME280;6539;49.476;8.484;2023-04-15T13:19:13;99849.78;;;17.86;29.60
12949;BME280;6539;49.476;8.484;2023-04-15T13:21:39;99863.06;;;17.91;34.53
12949;BME280;6539;49.476;8.484;2023-04-15T13:24:07;99865.22;;;17.87;30.01
12949;BME280;6539;49.476;8.484;2023-04-15T13:26:34;99873.56;;;17.87;29.82
12949;BME280;6539;49.476;8.484;2023-04-15T13:29:00;99864.94;;;17.76;30.10